sensor_id;sensor_type;location;lat;lon;timestamp;P1;durP1;ratioP1;P2;durP2;ratioP2
85385;SDS011;75792;42.686;23.298;2024-03-07T00:02:13;25.20;;;16.33;;
85385;SDS011;75792;42.686;23.298;2024-03-07T00:04:39;24.05;;;14.75;;
85385;SDS011;75792;42.686;23.298;2024-03-07T00:07:04;26.15;;;15.90;;
85385;SDS011;75792;42.686;23.298;2024-03-07T00:09:32;24.75;;;16.35;;
85385;SDS011;75792;42.686;23.298;2024-03-07T00:11:59;25.55;;;15.65;;
85385;SDS011;75792;42.686;23.298;2024-03-07T00:14:25;26.63;;;15.55;;
85385;SDS011;75792;42.686;23.298;2024-03-07T00:16:55;33.03;;;15.98;;
85385;SDS011;75792;42.686;23.298;2024-03-07T00:19:21;23.88;;;14.35;;
85385;SDS011;75792;42.686;23.298;2024-03-07T00:21:46;25.75;;;15.70;;
85385;SDS011;75792;42.686;23.298;2024-03-07T00:24:12;27.88;;;15.75;;
85385;SDS011;75792;42.686;23.298;2024-03-07T00:29:05;27.42;;;14.27;;
85385;SDS011;75792;42.686;23.298;2024-03-07T00:31:33;27.02;;;15.45;;
85385;SDS011;75792;42.686;23.298;2024-03-07T00:33:59;26.10;;;14.52;;
85385;SDS011;75792;42.686;23.298;2024-03-07T00:36:24;29.50;;;16.05;;
85385;SDS011;75792;42.686;23.298;2024-03-07T00:38:51;25.45;;;15.60;;
85385;SDS011;75792;42.686;23.298;2024-03-07T00:43:42;24.17;;;14.60;;
85385;SDS011;75792;42.686;23.298;2024-03-07T00:46:08;21.45;;;13.52;;
85385;SDS011;75792;42.686;23.298;2024-03-07T00:48:33;23.77;;;14.25;;
85385;SDS011;75792;42.686;23.298;2024-03-07T00:50:58;25.58;;;15.40;;
85385;SDS011;75792;42.686;23.298;2024-03-07T00:53:24;23.73;;;15.43;;
85385;SDS011;75792;42.686;23.298;2024-03-07T00:55:50;21.90;;;12.60;;
85385;SDS011;75792;42.686;23.298;2024-03-07T00:58:16;20.80;;;13.07;;
85385;SDS011;75792;42.686;23.298;2024-03-07T01:00:41;19.73;;;13.50;;
85385;SDS011;75792;42.686;23.298;2024-03-07T01:03:08;19.25;;;12.32;;
85385;SDS011;75792;42.686;23.298;2024-03-07T01:05:39;21.20;;;13.00;;
85385;SDS011;75792;42.686;23.298;2024-03-07T01:08:05;21.98;;;11.90;;
85385;SDS011;75792;42.686;23.298;2024-03-07T01:12:56;20.48;;;13.20;;
85385;SDS011;75792;42.686;23.298;2024-03-07T01:15:26;23.65;;;13.18;;
85385;SDS011;75792;42.686;23.298;2024-03-07T01:17:52;22.70;;;13.25;;
85385;SDS011;75792;42.686;23.298;2024-03-07T01:20:17;23.30;;;14.23;;
85385;SDS011;75792;42.686;23.298;2024-03-07T01:22:43;22.20;;;13.73;;
85385;SDS011;75792;42.686;23.298;2024-03-07T01:25:09;21.50;;;13.00;;
85385;SDS011;75792;42.686;23.298;2024-03-07T01:27:34;23.52;;;15.10;;
85385;SDS011;75792;42.686;23.298;2024-03-07T01:30:00;19.25;;;12.55;;
85385;SDS011;75792;42.686;23.298;2024-03-07T01:32:27;20.23;;;12.80;;
85385;SDS011;75792;42.686;23.298;2024-03-07T01:34:53;22.92;;;13.80;;
85385;SDS011;75792;42.686;23.298;2024-03-07T01:37:18;20.88;;;12.65;;
85385;SDS011;75792;42.686;23.298;2024-03-07T01:39:44;21.30;;;12.32;;
85385;SDS011;75792;42.686;23.298;2024-03-07T01:42:09;21.90;;;15.43;;
85385;SDS011;75792;42.686;23.298;2024-03-07T01:44:34;21.02;;;11.82;;
85385;SDS011;75792;42.686;23.298;2024-03-07T01:47:00;19.65;;;13.20;;
85385;SDS011;75792;42.686;23.298;2024-03-07T01:49:29;19.58;;;11.73;;
85385;SDS011;75792;42.686;23.298;2024-03-07T01:51:55;22.98;;;14.23;;
85385;SDS011;75792;42.686;23.298;2024-03-07T01:54:22;22.33;;;13.25;;
85385;SDS011;75792;42.686;23.298;2024-03-07T01:56:48;19.50;;;11.85;;
85385;SDS011;75792;42.686;23.298;2024-03-07T01:59:13;20.92;;;12.57;;
85385;SDS011;75792;42.686;23.298;2024-03-07T02:04:05;22.65;;;12.07;;
85385;SDS011;75792;42.686;23.298;2024-03-07T02:06:31;19.95;;;13.25;;
85385;SDS011;75792;42.686;23.298;2024-03-07T02:08:58;24.35;;;14.00;;
85385;SDS011;75792;42.686;23.298;2024-03-07T02:11:23;22.70;;;12.38;;
85385;SDS011;75792;42.686;23.298;2024-03-07T02:13:49;22.65;;;13.32;;
85385;SDS011;75792;42.686;23.298;2024-03-07T02:16:14;21.40;;;13.23;;
85385;SDS011;75792;42.686;23.298;2024-03-07T02:18:40;18.67;;;12.10;;
85385;SDS011;75792;42.686;23.298;2024-03-07T02:21:06;23.55;;;11.75;;
85385;SDS011;75792;42.686;23.298;2024-03-07T02:23:32;22.20;;;12.85;;
85385;SDS011;75792;42.686;23.298;2024-03-07T02:25:57;20.95;;;11.88;;
85385;SDS011;75792;42.686;23.298;2024-03-07T02:28:23;22.33;;;13.30;;
85385;SDS011;75792;42.686;23.298;2024-03-07T02:30:49;21.33;;;13.77;;
85385;SDS011;75792;42.686;23.298;2024-03-07T02:33:14;22.38;;;12.48;;
85385;SDS011;75792;42.686;23.298;2024-03-07T02:35:40;22.23;;;13.32;;
85385;SDS011;75792;42.686;23.298;2024-03-07T02:38:05;19.90;;;15.57;;
85385;SDS011;75792;42.686;23.298;2024-03-07T02:40:31;17.85;;;11.75;;
85385;SDS011;75792;42.686;23.298;2024-03-07T02:42:56;14.63;;;9.48;;
85385;SDS011;75792;42.686;23.298;2024-03-07T02:45:22;8.68;;;5.45;;
85385;SDS011;75792;42.686;23.298;2024-03-07T02:47:48;9.30;;;6.03;;
85385;SDS011;75792;42.686;23.298;2024-03-07T02:50:13;9.27;;;8.38;;
85385;SDS011;75792;42.686;23.298;2024-03-07T02:52:39;7.25;;;4.68;;
85385;SDS011;75792;42.686;23.298;2024-03-07T02:55:05;7.38;;;5.07;;
85385;SDS011;75792;42.686;23.298;2024-03-07T02:57:35;5.63;;;3.47;;
85385;SDS011;75792;42.686;23.298;2024-03-07T03:00:01;4.97;;;3.30;;
85385;SDS011;75792;42.686;23.298;2024-03-07T03:02:26;2.85;;;2.22;;
85385;SDS011;75792;42.686;23.298;2024-03-07T03:04:52;3.25;;;2.92;;
85385;SDS011;75792;42.686;23.298;2024-03-07T03:07:17;2.47;;;2.28;;
85385;SDS011;75792;42.686;23.298;2024-03-07T03:09:42;2.75;;;2.55;;
85385;SDS011;75792;42.686;23.298;2024-03-07T03:12:11;3.13;;;2.90;;
85385;SDS011;75792;42.686;23.298;2024-03-07T03:14:37;2.78;;;2.15;;
85385;SDS011;75792;42.686;23.298;2024-03-07T03:17:02;2.50;;;2.30;;
85385;SDS011;75792;42.686;23.298;2024-03-07T03:19:28;3.83;;;3.25;;
85385;SDS011;75792;42.686;23.298;2024-03-07T03:21:54;2.58;;;1.83;;
85385;SDS011;75792;42.686;23.298;2024-03-07T03:24:21;3.60;;;2.80;;
85385;SDS011;75792;42.686;23.298;2024-03-07T03:26:47;3.20;;;2.08;;
85385;SDS011;75792;42.686;23.298;2024-03-07T03:29:12;3.67;;;2.88;;
85385;SDS011;75792;42.686;23.298;2024-03-07T03:34:04;3.85;;;2.78;;
85385;SDS011;75792;42.686;23.298;2024-03-07T03:36:30;5.15;;;3.47;;
85385;SDS011;75792;42.686;23.298;2024-03-07T03:38:55;8.02;;;5.28;;
85385;SDS011;75792;42.686;23.298;2024-03-07T03:41:21;10.65;;;6.80;;
85385;SDS011;75792;42.686;23.298;2024-03-07T03:43:47;11.48;;;5.60;;
85385;SDS011;75792;42.686;23.298;2024-03-07T03:46:13;11.75;;;6.75;;
85385;SDS011;75792;42.686;23.298;2024-03-07T03:48:38;11.68;;;7.53;;
85385;SDS011;75792;42.686;23.298;2024-03-07T03:51:06;9.18;;;5.55;;
85385;SDS011;75792;42.686;23.298;2024-03-07T03:53:33;8.45;;;5.00;;
85385;SDS011;75792;42.686;23.298;2024-03-07T03:55:58;5.88;;;4.80;;
85385;SDS011;75792;42.686;23.298;2024-03-07T03:58:24;6.68;;;5.13;;
85385;SDS011;75792;42.686;23.298;2024-03-07T04:00:50;8.00;;;4.10;;
85385;SDS011;75792;42.686;23.298;2024-03-07T04:03:16;5.18;;;4.65;;
85385;SDS011;75792;42.686;23.298;2024-03-07T04:05:41;4.78;;;3.15;;
85385;SDS011;75792;42.686;23.298;2024-03-07T04:08:06;4.32;;;3.30;;
85385;SDS011;75792;42.686;23.298;2024-03-07T04:10:32;4.28;;;3.33;;
85385;SDS011;75792;42.686;23.298;2024-03-07T04:12:58;5.10;;;3.53;;
85385;SDS011;75792;42.686;23.298;2024-03-07T04:15:24;4.05;;;2.88;;
85385;SDS011;75792;42.686;23.298;2024-03-07T04:17:52;6.35;;;2.67;;
85385;SDS011;75792;42.686;23.298;2024-03-07T04:20:17;5.00;;;3.38;;
85385;SDS011;75792;42.686;23.298;2024-03-07T04:22:43;2.53;;;1.98;;
85385;SDS011;75792;42.686;23.298;2024-03-07T04:25:08;2.42;;;2.22;;
85385;SDS011;75792;42.686;23.298;2024-03-07T04:27:35;2.70;;;2.20;;
85385;SDS011;75792;42.686;23.298;2024-03-07T04:30:04;4.30;;;3.53;;
85385;SDS011;75792;42.686;23.298;2024-03-07T04:32:32;3.60;;;2.78;;
85385;SDS011;75792;42.686;23.298;2024-03-07T04:34:59;2.88;;;2.63;;
85385;SDS011;75792;42.686;23.298;2024-03-07T04:37:25;3.03;;;2.03;;
85385;SDS011;75792;42.686;23.298;2024-03-07T04:39:52;3.55;;;3.25;;
85385;SDS011;75792;42.686;23.298;2024-03-07T04:42:18;2.58;;;2.03;;
85385;SDS011;75792;42.686;23.298;2024-03-07T04:44:43;3.20;;;2.90;;
85385;SDS011;75792;42.686;23.298;2024-03-07T04:47:09;1.95;;;1.50;;
85385;SDS011;75792;42.686;23.298;2024-03-07T04:49:35;2.45;;;2.25;;
85385;SDS011;75792;42.686;23.298;2024-03-07T04:52:01;1.75;;;1.27;;
85385;SDS011;75792;42.686;23.298;2024-03-07T04:54:28;2.10;;;1.98;;
85385;SDS011;75792;42.686;23.298;2024-03-07T04:56:54;2.00;;;1.90;;
85385;SDS011;75792;42.686;23.298;2024-03-07T04:59:21;1.33;;;1.02;;
85385;SDS011;75792;42.686;23.298;2024-03-07T05:01:47;4.47;;;4.28;;
85385;SDS011;75792;42.686;23.298;2024-03-07T05:04:15;1.90;;;1.10;;
85385;SDS011;75792;42.686;23.298;2024-03-07T05:06:41;2.00;;;1.90;;
85385;SDS011;75792;42.686;23.298;2024-03-07T05:09:07;2.08;;;1.40;;
85385;SDS011;75792;42.686;23.298;2024-03-07T05:11:56;2.50;;;2.33;;
85385;SDS011;75792;42.686;23.298;2024-03-07T05:14:22;2.22;;;2.03;;
85385;SDS011;75792;42.686;23.298;2024-03-07T05:16:50;2.15;;;1.95;;
85385;SDS011;75792;42.686;23.298;2024-03-07T05:19:30;1.92;;;1.23;;
85385;SDS011;75792;42.686;23.298;2024-03-07T05:21:57;2.22;;;2.03;;
85385;SDS011;75792;42.686;23.298;2024-03-07T05:24:23;4.15;;;3.33;;
85385;SDS011;75792;42.686;23.298;2024-03-07T05:26:48;2.67;;;2.47;;
85385;SDS011;75792;42.686;23.298;2024-03-07T05:29:14;3.60;;;2.10;;
85385;SDS011;75792;42.686;23.298;2024-03-07T05:31:40;4.47;;;2.55;;
85385;SDS011;75792;42.686;23.298;2024-03-07T05:34:17;5.45;;;4.95;;
85385;SDS011;75792;42.686;23.298;2024-03-07T05:36:48;3.55;;;3.25;;
85385;SDS011;75792;42.686;23.298;2024-03-07T05:39:14;4.85;;;4.47;;
85385;SDS011;75792;42.686;23.298;2024-03-07T05:41:40;5.22;;;3.72;;
85385;SDS011;75792;42.686;23.298;2024-03-07T05:44:07;3.28;;;2.58;;
85385;SDS011;75792;42.686;23.298;2024-03-07T05:49:12;4.05;;;3.35;;
85385;SDS011;75792;42.686;23.298;2024-03-07T05:51:37;3.40;;;3.10;;
85385;SDS011;75792;42.686;23.298;2024-03-07T05:54:03;3.63;;;3.08;;
85385;SDS011;75792;42.686;23.298;2024-03-07T05:56:34;3.88;;;3.47;;
85385;SDS011;75792;42.686;23.298;2024-03-07T05:59:03;4.30;;;3.03;;
85385;SDS011;75792;42.686;23.298;2024-03-07T06:01:37;3.83;;;3.13;;
85385;SDS011;75792;42.686;23.298;2024-03-07T06:04:03;5.45;;;3.50;;
85385;SDS011;75792;42.686;23.298;2024-03-07T06:06:36;4.30;;;2.90;;
85385;SDS011;75792;42.686;23.298;2024-03-07T06:09:05;4.18;;;3.05;;
85385;SDS011;75792;42.686;23.298;2024-03-07T06:11:33;4.75;;;2.85;;
85385;SDS011;75792;42.686;23.298;2024-03-07T06:14:00;3.63;;;3.05;;
85385;SDS011;75792;42.686;23.298;2024-03-07T06:16:27;4.43;;;3.25;;
85385;SDS011;75792;42.686;23.298;2024-03-07T06:18:57;4.47;;;3.05;;
85385;SDS011;75792;42.686;23.298;2024-03-07T06:21:24;6.85;;;6.05;;
85385;SDS011;75792;42.686;23.298;2024-03-07T06:23:50;4.13;;;3.45;;
85385;SDS011;75792;42.686;23.298;2024-03-07T06:26:24;7.60;;;7.10;;
85385;SDS011;75792;42.686;23.298;2024-03-07T06:29:05;3.92;;;3.15;;
85385;SDS011;75792;42.686;23.298;2024-03-07T06:31:31;3.90;;;3.13;;
85385;SDS011;75792;42.686;23.298;2024-03-07T06:33:57;5.63;;;3.53;;
85385;SDS011;75792;42.686;23.298;2024-03-07T06:36:23;4.45;;;3.85;;
85385;SDS011;75792;42.686;23.298;2024-03-07T06:38:50;4.22;;;3.83;;
85385;SDS011;75792;42.686;23.298;2024-03-07T06:41:15;4.82;;;3.55;;
85385;SDS011;75792;42.686;23.298;2024-03-07T06:43:41;4.95;;;2.70;;
85385;SDS011;75792;42.686;23.298;2024-03-07T06:46:09;4.57;;;3.42;;
85385;SDS011;75792;42.686;23.298;2024-03-07T06:48:35;4.70;;;3.85;;
85385;SDS011;75792;42.686;23.298;2024-03-07T06:51:00;5.63;;;4.05;;
85385;SDS011;75792;42.686;23.298;2024-03-07T06:53:25;5.93;;;4.20;;
85385;SDS011;75792;42.686;23.298;2024-03-07T06:55:53;5.15;;;3.78;;
85385;SDS011;75792;42.686;23.298;2024-03-07T06:58:21;5.05;;;4.03;;
85385;SDS011;75792;42.686;23.298;2024-03-07T07:00:47;5.53;;;4.05;;
85385;SDS011;75792;42.686;23.298;2024-03-07T07:03:16;5.07;;;4.15;;
85385;SDS011;75792;42.686;23.298;2024-03-07T07:05:42;5.22;;;4.20;;
85385;SDS011;75792;42.686;23.298;2024-03-07T07:08:07;4.90;;;4.40;;
85385;SDS011;75792;42.686;23.298;2024-03-07T07:10:33;5.00;;;3.90;;
85385;SDS011;75792;42.686;23.298;2024-03-07T07:13:00;5.38;;;3.70;;
85385;SDS011;75792;42.686;23.298;2024-03-07T07:15:26;5.75;;;4.40;;
85385;SDS011;75792;42.686;23.298;2024-03-07T07:17:51;6.40;;;5.53;;
85385;SDS011;75792;42.686;23.298;2024-03-07T07:20:17;5.88;;;4.97;;
85385;SDS011;75792;42.686;23.298;2024-03-07T07:22:46;5.82;;;3.90;;
85385;SDS011;75792;42.686;23.298;2024-03-07T07:25:16;4.88;;;4.38;;
85385;SDS011;75792;42.686;23.298;2024-03-07T07:27:48;4.90;;;3.70;;
85385;SDS011;75792;42.686;23.298;2024-03-07T07:30:15;6.18;;;4.10;;
85385;SDS011;75792;42.686;23.298;2024-03-07T07:32:42;5.57;;;4.68;;
85385;SDS011;75792;42.686;23.298;2024-03-07T07:35:09;8.15;;;4.28;;
85385;SDS011;75792;42.686;23.298;2024-03-07T07:37:41;7.18;;;4.10;;
85385;SDS011;75792;42.686;23.298;2024-03-07T07:40:09;4.13;;;3.72;;
85385;SDS011;75792;42.686;23.298;2024-03-07T07:42:42;4.65;;;3.28;;
85385;SDS011;75792;42.686;23.298;2024-03-07T07:45:09;5.57;;;4.53;;
85385;SDS011;75792;42.686;23.298;2024-03-07T07:47:41;3.97;;;2.88;;
85385;SDS011;75792;42.686;23.298;2024-03-07T07:50:09;3.58;;;3.20;;
85385;SDS011;75792;42.686;23.298;2024-03-07T07:52:45;4.70;;;2.92;;
85385;SDS011;75792;42.686;23.298;2024-03-07T07:55:15;4.60;;;3.05;;
85385;SDS011;75792;42.686;23.298;2024-03-07T07:57:45;3.65;;;3.30;;
85385;SDS011;75792;42.686;23.298;2024-03-07T08:05:19;6.50;;;4.63;;
85385;SDS011;75792;42.686;23.298;2024-03-07T08:07:48;7.47;;;6.55;;
85385;SDS011;75792;42.686;23.298;2024-03-07T08:10:24;5.57;;;3.83;;
85385;SDS011;75792;42.686;23.298;2024-03-07T08:12:53;5.70;;;3.88;;
85385;SDS011;75792;42.686;23.298;2024-03-07T08:15:19;8.15;;;4.28;;
85385;SDS011;75792;42.686;23.298;2024-03-07T08:17:45;8.75;;;4.72;;
85385;SDS011;75792;42.686;23.298;2024-03-07T08:20:12;7.70;;;4.78;;
85385;SDS011;75792;42.686;23.298;2024-03-07T08:22:39;5.60;;;4.35;;
85385;SDS011;75792;42.686;23.298;2024-03-07T08:25:14;4.45;;;3.75;;
85385;SDS011;75792;42.686;23.298;2024-03-07T08:27:40;5.85;;;3.55;;
85385;SDS011;75792;42.686;23.298;2024-03-07T08:30:07;5.55;;;3.72;;
85385;SDS011;75792;42.686;23.298;2024-03-07T08:32:44;4.07;;;3.67;;
85385;SDS011;75792;42.686;23.298;2024-03-07T08:35:10;4.75;;;3.50;;
85385;SDS011;75792;42.686;23.298;2024-03-07T08:37:37;4.28;;;3.10;;
85385;SDS011;75792;42.686;23.298;2024-03-07T08:40:03;5.05;;;4.07;;
85385;SDS011;75792;42.686;23.298;2024-03-07T08:42:30;6.43;;;5.93;;
85385;SDS011;75792;42.686;23.298;2024-03-07T08:44:58;4.57;;;3.30;;
85385;SDS011;75792;42.686;23.298;2024-03-07T08:47:24;4.43;;;3.90;;
85385;SDS011;75792;42.686;23.298;2024-03-07T08:49:50;7.57;;;6.10;;
85385;SDS011;75792;42.686;23.298;2024-03-07T08:52:16;5.28;;;4.78;;
85385;SDS011;75792;42.686;23.298;2024-03-07T08:54:41;4.72;;;3.03;;
85385;SDS011;75792;42.686;23.298;2024-03-07T08:57:08;3.92;;;2.90;;
85385;SDS011;75792;42.686;23.298;2024-03-07T08:59:34;6.38;;;4.38;;
85385;SDS011;75792;42.686;23.298;2024-03-07T09:01:59;5.90;;;4.15;;
85385;SDS011;75792;42.686;23.298;2024-03-07T09:04:26;4.85;;;3.58;;
85385;SDS011;75792;42.686;23.298;2024-03-07T09:06:54;3.67;;;2.65;;
85385;SDS011;75792;42.686;23.298;2024-03-07T09:11:45;3.40;;;3.10;;
85385;SDS011;75792;42.686;23.298;2024-03-07T09:14:10;4.25;;;3.42;;
85385;SDS011;75792;42.686;23.298;2024-03-07T09:16:36;3.95;;;3.25;;
85385;SDS011;75792;42.686;23.298;2024-03-07T09:19:01;3.80;;;3.05;;
85385;SDS011;75792;42.686;23.298;2024-03-07T09:21:28;7.07;;;5.50;;
85385;SDS011;75792;42.686;23.298;2024-03-07T09:23:53;4.53;;;2.53;;
85385;SDS011;75792;42.686;23.298;2024-03-07T09:26:19;4.63;;;2.78;;
85385;SDS011;75792;42.686;23.298;2024-03-07T09:28:45;4.90;;;3.92;;
85385;SDS011;75792;42.686;23.298;2024-03-07T09:33:38;4.25;;;3.20;;
85385;SDS011;75792;42.686;23.298;2024-03-07T09:36:04;4.38;;;3.55;;
85385;SDS011;75792;42.686;23.298;2024-03-07T09:38:31;3.25;;;2.72;;
85385;SDS011;75792;42.686;23.298;2024-03-07T09:40:57;5.05;;;2.90;;
85385;SDS011;75792;42.686;23.298;2024-03-07T09:43:24;7.90;;;4.70;;
85385;SDS011;75792;42.686;23.298;2024-03-07T09:45:53;4.60;;;3.78;;
85385;SDS011;75792;42.686;23.298;2024-03-07T09:48:20;4.80;;;3.08;;
85385;SDS011;75792;42.686;23.298;2024-03-07T09:50:50;3.55;;;2.70;;
85385;SDS011;75792;42.686;23.298;2024-03-07T09:53:17;4.88;;;3.13;;
85385;SDS011;75792;42.686;23.298;2024-03-07T09:55:43;6.90;;;2.88;;
85385;SDS011;75792;42.686;23.298;2024-03-07T09:58:09;5.20;;;4.25;;
85385;SDS011;75792;42.686;23.298;2024-03-07T10:00:38;5.15;;;4.45;;
85385;SDS011;75792;42.686;23.298;2024-03-07T10:03:06;6.25;;;4.43;;
85385;SDS011;75792;42.686;23.298;2024-03-07T10:05:34;5.13;;;4.45;;
85385;SDS011;75792;42.686;23.298;2024-03-07T10:08:00;6.70;;;4.32;;
85385;SDS011;75792;42.686;23.298;2024-03-07T10:10:26;6.40;;;4.00;;
85385;SDS011;75792;42.686;23.298;2024-03-07T10:12:52;5.13;;;4.32;;
85385;SDS011;75792;42.686;23.298;2024-03-07T10:15:26;3.75;;;3.45;;
85385;SDS011;75792;42.686;23.298;2024-03-07T10:17:55;4.47;;;3.20;;
85385;SDS011;75792;42.686;23.298;2024-03-07T10:20:21;3.90;;;3.42;;
85385;SDS011;75792;42.686;23.298;2024-03-07T10:22:47;4.18;;;3.38;;
85385;SDS011;75792;42.686;23.298;2024-03-07T10:25:20;5.43;;;3.85;;
85385;SDS011;75792;42.686;23.298;2024-03-07T10:27:52;5.30;;;3.90;;
85385;SDS011;75792;42.686;23.298;2024-03-07T10:30:18;6.65;;;3.05;;
85385;SDS011;75792;42.686;23.298;2024-03-07T10:32:48;5.75;;;3.28;;
85385;SDS011;75792;42.686;23.298;2024-03-07T10:35:21;5.13;;;4.13;;
85385;SDS011;75792;42.686;23.298;2024-03-07T10:37:49;5.07;;;4.25;;
85385;SDS011;75792;42.686;23.298;2024-03-07T10:40:19;5.28;;;4.53;;
85385;SDS011;75792;42.686;23.298;2024-03-07T10:42:46;4.05;;;2.97;;
85385;SDS011;75792;42.686;23.298;2024-03-07T10:45:17;5.93;;;4.13;;
85385;SDS011;75792;42.686;23.298;2024-03-07T10:47:48;5.88;;;4.38;;
85385;SDS011;75792;42.686;23.298;2024-03-07T10:58:59;6.22;;;3.17;;
85385;SDS011;75792;42.686;23.298;2024-03-07T11:01:59;6.88;;;3.05;;
85385;SDS011;75792;42.686;23.298;2024-03-07T11:04:52;5.05;;;4.35;;
85385;SDS011;75792;42.686;23.298;2024-03-07T11:07:20;4.00;;;3.17;;
85385;SDS011;75792;42.686;23.298;2024-03-07T11:09:48;4.28;;;3.20;;
85385;SDS011;75792;42.686;23.298;2024-03-07T11:12:17;5.03;;;4.63;;
85385;SDS011;75792;42.686;23.298;2024-03-07T11:14:47;4.55;;;3.97;;
85385;SDS011;75792;42.686;23.298;2024-03-07T11:17:15;5.38;;;3.78;;
85385;SDS011;75792;42.686;23.298;2024-03-07T11:19:44;4.78;;;4.13;;
85385;SDS011;75792;42.686;23.298;2024-03-07T11:22:10;4.07;;;3.40;;
85385;SDS011;75792;42.686;23.298;2024-03-07T11:24:40;6.00;;;3.28;;
85385;SDS011;75792;42.686;23.298;2024-03-07T11:27:08;3.92;;;2.75;;
85385;SDS011;75792;42.686;23.298;2024-03-07T11:29:41;6.47;;;4.30;;
85385;SDS011;75792;42.686;23.298;2024-03-07T11:32:12;6.15;;;4.05;;
85385;SDS011;75792;42.686;23.298;2024-03-07T11:34:38;5.57;;;3.33;;
85385;SDS011;75792;42.686;23.298;2024-03-07T11:37:10;5.60;;;3.35;;
85385;SDS011;75792;42.686;23.298;2024-03-07T11:39:42;4.38;;;3.25;;
85385;SDS011;75792;42.686;23.298;2024-03-07T11:44:51;6.35;;;3.08;;
85385;SDS011;75792;42.686;23.298;2024-03-07T11:47:17;4.88;;;3.13;;
85385;SDS011;75792;42.686;23.298;2024-03-07T11:49:44;8.02;;;5.13;;
85385;SDS011;75792;42.686;23.298;2024-03-07T11:52:14;6.45;;;4.22;;
85385;SDS011;75792;42.686;23.298;2024-03-07T11:54:41;5.55;;;2.78;;
85385;SDS011;75792;42.686;23.298;2024-03-07T11:57:20;6.75;;;3.45;;
85385;SDS011;75792;42.686;23.298;2024-03-07T11:59:51;3.38;;;2.85;;
85385;SDS011;75792;42.686;23.298;2024-03-07T12:04:49;5.88;;;3.72;;
85385;SDS011;75792;42.686;23.298;2024-03-07T12:07:14;4.85;;;4.38;;
85385;SDS011;75792;42.686;23.298;2024-03-07T12:09:42;6.13;;;3.72;;
85385;SDS011;75792;42.686;23.298;2024-03-07T12:12:11;5.40;;;3.60;;
85385;SDS011;75792;42.686;23.298;2024-03-07T12:14:37;6.07;;;5.60;;
85385;SDS011;75792;42.686;23.298;2024-03-07T12:17:04;5.13;;;4.13;;
85385;SDS011;75792;42.686;23.298;2024-03-07T12:19:33;6.38;;;3.80;;
85385;SDS011;75792;42.686;23.298;2024-03-07T12:22:00;4.82;;;3.25;;
85385;SDS011;75792;42.686;23.298;2024-03-07T12:24:28;5.13;;;4.22;;
85385;SDS011;75792;42.686;23.298;2024-03-07T12:27:04;6.93;;;4.10;;
85385;SDS011;75792;42.686;23.298;2024-03-07T12:29:31;3.50;;;3.08;;
85385;SDS011;75792;42.686;23.298;2024-03-07T12:31:57;4.60;;;3.17;;
85385;SDS011;75792;42.686;23.298;2024-03-07T12:34:27;4.55;;;2.97;;
85385;SDS011;75792;42.686;23.298;2024-03-07T12:36:55;6.95;;;4.15;;
85385;SDS011;75792;42.686;23.298;2024-03-07T12:39:27;6.00;;;4.03;;
85385;SDS011;75792;42.686;23.298;2024-03-07T12:41:58;7.90;;;6.60;;
85385;SDS011;75792;42.686;23.298;2024-03-07T12:44:23;9.23;;;4.78;;
85385;SDS011;75792;42.686;23.298;2024-03-07T12:46:50;5.38;;;4.43;;
85385;SDS011;75792;42.686;23.298;2024-03-07T12:49:21;5.40;;;4.30;;
85385;SDS011;75792;42.686;23.298;2024-03-07T12:51:55;7.68;;;4.97;;
85385;SDS011;75792;42.686;23.298;2024-03-07T12:54:21;6.03;;;4.68;;
85385;SDS011;75792;42.686;23.298;2024-03-07T12:56:47;9.00;;;4.28;;
85385;SDS011;75792;42.686;23.298;2024-03-07T12:59:15;6.63;;;5.05;;
85385;SDS011;75792;42.686;23.298;2024-03-07T13:04:10;8.10;;;4.95;;
85385;SDS011;75792;42.686;23.298;2024-03-07T13:06:36;9.43;;;7.30;;
85385;SDS011;75792;42.686;23.298;2024-03-07T13:09:01;6.05;;;4.57;;
85385;SDS011;75792;42.686;23.298;2024-03-07T13:11:28;7.53;;;4.35;;
85385;SDS011;75792;42.686;23.298;2024-03-07T13:13:57;5.90;;;4.40;;
85385;SDS011;75792;42.686;23.298;2024-03-07T13:16:22;5.68;;;4.32;;
85385;SDS011;75792;42.686;23.298;2024-03-07T13:18:55;5.93;;;3.97;;
85385;SDS011;75792;42.686;23.298;2024-03-07T13:21:21;7.88;;;5.32;;
85385;SDS011;75792;42.686;23.298;2024-03-07T13:23:46;6.35;;;4.85;;
85385;SDS011;75792;42.686;23.298;2024-03-07T13:26:12;9.02;;;5.55;;
85385;SDS011;75792;42.686;23.298;2024-03-07T13:28:42;6.88;;;3.67;;
85385;SDS011;75792;42.686;23.298;2024-03-07T13:31:09;3.38;;;2.75;;
85385;SDS011;75792;42.686;23.298;2024-03-07T13:33:36;3.53;;;3.22;;
85385;SDS011;75792;42.686;23.298;2024-03-07T13:36:02;5.75;;;2.10;;
85385;SDS011;75792;42.686;23.298;2024-03-07T13:38:29;4.40;;;4.00;;
85385;SDS011;75792;42.686;23.298;2024-03-07T13:40:54;5.32;;;4.82;;
85385;SDS011;75792;42.686;23.298;2024-03-07T13:43:22;6.43;;;4.85;;
85385;SDS011;75792;42.686;23.298;2024-03-07T13:45:48;6.93;;;6.10;;
85385;SDS011;75792;42.686;23.298;2024-03-07T13:48:13;8.43;;;4.50;;
85385;SDS011;75792;42.686;23.298;2024-03-07T13:50:41;4.93;;;3.78;;
85385;SDS011;75792;42.686;23.298;2024-03-07T13:53:09;6.95;;;3.20;;
85385;SDS011;75792;42.686;23.298;2024-03-07T13:58:37;6.07;;;4.05;;
85385;SDS011;75792;42.686;23.298;2024-03-07T14:32:21;5.85;;;4.28;;
85385;SDS011;75792;42.686;23.298;2024-03-07T14:34:56;7.38;;;4.53;;
85385;SDS011;75792;42.686;23.298;2024-03-07T14:37:34;4.82;;;4.07;;
85385;SDS011;75792;42.686;23.298;2024-03-07T14:40:07;5.75;;;3.80;;
85385;SDS011;75792;42.686;23.298;2024-03-07T14:42:39;5.88;;;3.78;;
85385;SDS011;75792;42.686;23.298;2024-03-07T14:45:11;9.57;;;5.32;;
85385;SDS011;75792;42.686;23.298;2024-03-07T14:47:38;6.20;;;4.93;;
85385;SDS011;75792;42.686;23.298;2024-03-07T14:50:03;7.00;;;4.97;;
85385;SDS011;75792;42.686;23.298;2024-03-07T14:52:29;8.80;;;5.05;;
85385;SDS011;75792;42.686;23.298;2024-03-07T14:54:56;9.13;;;7.75;;
85385;SDS011;75792;42.686;23.298;2024-03-07T14:57:23;10.02;;;5.53;;
85385;SDS011;75792;42.686;23.298;2024-03-07T14:59:48;9.98;;;5.22;;
85385;SDS011;75792;42.686;23.298;2024-03-07T15:02:15;13.65;;;7.53;;
85385;SDS011;75792;42.686;23.298;2024-03-07T15:04:41;8.48;;;4.88;;
85385;SDS011;75792;42.686;23.298;2024-03-07T15:07:06;6.85;;;5.25;;
85385;SDS011;75792;42.686;23.298;2024-03-07T15:09:34;9.57;;;8.15;;
85385;SDS011;75792;42.686;23.298;2024-03-07T15:12:01;14.75;;;6.75;;
85385;SDS011;75792;42.686;23.298;2024-03-07T15:14:27;9.10;;;6.05;;
85385;SDS011;75792;42.686;23.298;2024-03-07T15:16:52;7.80;;;5.68;;
85385;SDS011;75792;42.686;23.298;2024-03-07T15:19:18;9.55;;;6.43;;
85385;SDS011;75792;42.686;23.298;2024-03-07T15:21:44;10.52;;;6.05;;
85385;SDS011;75792;42.686;23.298;2024-03-07T15:24:09;11.00;;;7.35;;
85385;SDS011;75792;42.686;23.298;2024-03-07T15:26:36;10.40;;;6.43;;
85385;SDS011;75792;42.686;23.298;2024-03-07T15:29:01;8.50;;;6.07;;
85385;SDS011;75792;42.686;23.298;2024-03-07T15:31:27;9.68;;;7.72;;
85385;SDS011;75792;42.686;23.298;2024-03-07T15:33:52;10.27;;;6.18;;
85385;SDS011;75792;42.686;23.298;2024-03-07T15:36:18;10.50;;;5.55;;
85385;SDS011;75792;42.686;23.298;2024-03-07T15:38:45;9.65;;;7.30;;
85385;SDS011;75792;42.686;23.298;2024-03-07T15:41:11;9.35;;;5.70;;
85385;SDS011;75792;42.686;23.298;2024-03-07T15:43:40;8.77;;;6.00;;
85385;SDS011;75792;42.686;23.298;2024-03-07T15:46:07;10.20;;;5.85;;